createdAt,value
2023-01-13T00:00:31.445Z,60.43
2023-01-13T00:02:34.361Z,60.44
2023-01-13T00:04:37.212Z,60.58
2023-01-13T00:06:39.942Z,60.55
2023-01-13T00:08:42.848Z,60.46
2023-01-13T00:10:47.952Z,60.44
2023-01-13T00:12:51.422Z,60.68
2023-01-13T00:14:54.086Z,61.08
2023-01-13T00:16:58.263Z,60.09
2023-01-13T00:19:00.983Z,60.80
2023-01-13T00:21:05.909Z,60.44
2023-01-13T00:23:08.590Z,60.52
2023-01-13T00:25:11.821Z,60.77
2023-01-13T00:27:14.514Z,59.97
2023-01-13T00:29:17.175Z,60.23
2023-01-13T00:31:21.779Z,59.88
2023-01-13T00:33:26.447Z,60.76
2023-01-13T00:35:29.213Z,61.14
2023-01-13T00:37:31.878Z,60.87
2023-01-13T00:39:34.582Z,61.04
2023-01-13T00:41:51.248Z,60.70
2023-01-13T00:43:54.111Z,61.27
2023-01-13T00:45:57.167Z,60.56
2023-01-13T00:48:02.747Z,59.54
2023-01-13T00:50:07.248Z,60.53
2023-01-13T00:52:10.068Z,60.02
2023-01-13T00:54:12.881Z,60.18
2023-01-13T00:56:24.357Z,60.06
2023-01-13T00:58:34.975Z,60.56
2023-01-13T01:00:38.618Z,60.15
2023-01-13T01:02:41.392Z,60.22
2023-01-13T01:04:44.084Z,59.90
2023-01-13T01:06:48.246Z,60.19
2023-01-13T01:08:51.702Z,60.17
2023-01-13T01:11:02.594Z,59.89
2023-01-13T01:13:05.327Z,59.81
2023-01-13T01:15:10.118Z,60.23
2023-01-13T01:17:12.796Z,60.45
2023-01-13T01:19:15.487Z,60.60
2023-01-13T01:21:19.638Z,60.52
2023-01-13T01:23:23.750Z,60.51
2023-01-13T01:25:26.497Z,59.72
2023-01-13T01:27:29.160Z,59.94
2023-01-13T01:29:31.978Z,59.97
2023-01-13T01:31:34.894Z,60.82
2023-01-13T01:33:37.809Z,61.02
2023-01-13T01:35:40.714Z,60.42
2023-01-13T01:37:43.457Z,61.02
2023-01-13T01:39:47.544Z,61.11
2023-01-13T01:42:04.181Z,61.02
2023-01-13T01:44:29.310Z,61.53
2023-01-13T01:46:35.142Z,61.05
2023-01-13T01:48:41.892Z,60.94
2023-01-13T01:50:44.674Z,61.77
2023-01-13T01:52:52.387Z,62.07
2023-01-13T01:55:01.129Z,61.87
2023-01-13T01:57:04.301Z,62.43
2023-01-13T01:59:07.129Z,62.32
2023-01-13T02:01:10.223Z,62.17
2023-01-13T02:03:13.363Z,62.70
2023-01-13T02:05:16.132Z,62.01
2023-01-13T02:07:19.479Z,62.39
2023-01-13T02:09:22.184Z,61.86
2023-01-13T02:11:51.550Z,62.17
2023-01-13T02:13:54.702Z,62.00
2023-01-13T02:16:09.295Z,62.08
2023-01-13T02:18:39.210Z,61.98
2023-01-13T02:21:06.096Z,61.81
2023-01-13T02:24:01.930Z,61.08
2023-01-13T02:26:27.690Z,61.16
2023-01-13T02:29:08.663Z,61.07
2023-01-13T02:31:33.715Z,61.13
2023-01-13T02:33:47.007Z,60.79
2023-01-13T02:35:53.327Z,61.24
2023-01-13T02:37:59.428Z,60.91
2023-01-13T02:40:08.185Z,61.40
2023-01-13T02:42:33.372Z,60.51
2023-01-13T02:44:42.953Z,60.92
2023-01-13T02:46:53.346Z,61.25
2023-01-13T02:48:59.248Z,61.14
2023-01-13T02:51:07.520Z,61.68
2023-01-13T02:53:16.597Z,61.43
2023-01-13T02:55:23.123Z,61.16
2023-01-13T02:57:28.744Z,61.09
2023-01-13T02:59:32.399Z,61.40
2023-01-13T03:01:35.052Z,61.70
2023-01-13T03:03:39.046Z,61.43
2023-01-13T03:05:43.639Z,62.14
2023-01-13T03:07:57.588Z,61.94
2023-01-13T03:10:07.790Z,61.89
2023-01-13T03:12:19.945Z,61.73
2023-01-13T03:14:36.562Z,61.42
2023-01-13T03:16:57.632Z,61.61
2023-01-13T03:19:22.140Z,61.70
2023-01-13T03:21:29.908Z,62.03
2023-01-13T03:23:37.108Z,61.88
2023-01-13T03:25:44.403Z,62.27
2023-01-13T03:27:54.259Z,62.22
2023-01-13T03:30:01.250Z,62.27
2023-01-13T03:32:09.185Z,62.01
2023-01-13T03:34:19.317Z,61.92
2023-01-13T03:36:26.049Z,62.84
2023-01-13T03:38:32.959Z,62.62
2023-01-13T03:40:42.041Z,63.08
2023-01-13T03:43:03.880Z,62.49
2023-01-13T03:45:12.150Z,63.17
2023-01-13T03:47:21.741Z,62.66
2023-01-13T03:49:30.382Z,62.82
2023-01-13T03:51:36.769Z,63.30
2023-01-13T03:53:44.580Z,63.36
2023-01-13T03:55:51.911Z,62.77
2023-01-13T03:58:01.163Z,63.02
2023-01-13T04:00:09.434Z,62.86
2023-01-13T04:02:19.368Z,63.51
2023-01-13T04:04:26.917Z,63.02
2023-01-13T04:06:38.154Z,63.49
2023-01-13T04:08:45.754Z,64.01
2023-01-13T04:10:54.341Z,63.05
2023-01-13T04:13:01.692Z,63.47
2023-01-13T04:15:04.469Z,63.58
2023-01-13T04:17:07.039Z,63.65
2023-01-13T04:19:09.620Z,64.02
2023-01-13T04:21:13.499Z,64.05
2023-01-13T04:23:17.160Z,63.43
2023-01-13T04:25:19.795Z,62.99
2023-01-13T04:27:22.331Z,63.05
2023-01-13T04:29:24.889Z,62.72
2023-01-13T04:31:27.524Z,62.90
2023-01-13T04:33:30.144Z,63.13
2023-01-13T04:35:33.171Z,63.18
2023-01-13T04:37:37.158Z,62.16
2023-01-13T04:39:39.778Z,61.96
2023-01-13T04:41:59.602Z,61.89
2023-01-13T04:44:02.147Z,62.01
2023-01-13T04:46:07.099Z,61.42
2023-01-13T04:48:09.781Z,61.97
2023-01-13T04:50:12.942Z,61.82
2023-01-13T04:52:15.517Z,61.80
2023-01-13T04:54:19.521Z,61.59
2023-01-13T04:56:22.094Z,61.40
2023-01-13T04:58:24.673Z,61.90
2023-01-13T05:00:27.210Z,61.19
2023-01-13T05:02:29.821Z,60.55
2023-01-13T05:04:32.448Z,60.72
2023-01-13T05:06:35.070Z,61.09
2023-01-13T05:08:37.598Z,61.31
2023-01-13T05:10:41.466Z,61.28
2023-01-13T05:13:01.699Z,60.98
2023-01-13T05:15:22.138Z,61.55
2023-01-13T05:17:26.078Z,62.03
2023-01-13T05:19:30.828Z,62.03
2023-01-13T05:21:50.847Z,61.61
2023-01-13T05:24:11.228Z,61.58
2023-01-13T05:26:15.193Z,61.53
2023-01-13T05:28:17.821Z,61.77
2023-01-13T05:30:22.152Z,61.60
2023-01-13T05:32:25.373Z,62.09
2023-01-13T05:34:27.947Z,61.66
2023-01-13T05:36:30.744Z,61.62
2023-01-13T05:38:33.311Z,61.77
2023-01-13T05:40:53.777Z,61.42
2023-01-13T05:43:24.441Z,61.57
2023-01-13T05:45:27.102Z,62.48
2023-01-13T05:47:29.682Z,62.50
2023-01-13T05:49:32.255Z,62.37
2023-01-13T05:51:34.793Z,62.27
2023-01-13T05:53:40.685Z,62.34
2023-01-13T05:55:44.046Z,62.42
2023-01-13T05:57:46.669Z,62.73
2023-01-13T05:59:50.581Z,62.28
2023-01-13T06:01:53.116Z,62.27
2023-01-13T06:03:55.759Z,62.71
2023-01-13T06:06:01.417Z,63.26
2023-01-13T06:08:06.128Z,62.72
2023-01-13T06:10:10.462Z,62.75
2023-01-13T06:12:14.476Z,62.42
2023-01-13T06:14:17.054Z,62.72
2023-01-13T06:16:21.074Z,62.79
2023-01-13T06:18:23.691Z,63.12
2023-01-13T06:20:26.482Z,62.51
2023-01-13T06:22:32.790Z,62.28
2023-01-13T06:24:35.677Z,62.74
2023-01-13T06:26:40.642Z,62.88
2023-01-13T06:28:43.271Z,62.43
2023-01-13T06:30:48.937Z,62.86
2023-01-13T06:32:56.358Z,63.29
2023-01-13T06:35:05.489Z,63.45
2023-01-13T06:37:08.366Z,63.34
2023-01-13T06:39:15.102Z,63.16
2023-01-13T06:41:18.231Z,63.37
2023-01-13T06:43:19.837Z,62.78
2023-01-13T06:45:23.803Z,63.60
2023-01-13T06:47:26.396Z,63.04
2023-01-13T06:49:30.470Z,63.40
2023-01-13T06:51:33.051Z,63.34
2023-01-13T06:53:35.645Z,63.42
2023-01-13T06:55:38.377Z,63.83
2023-01-13T06:57:49.398Z,63.49
2023-01-13T06:59:52.002Z,63.21
2023-01-13T07:01:54.743Z,63.04
2023-01-13T07:03:58.122Z,63.40
2023-01-13T07:06:02.237Z,63.38
2023-01-13T07:08:05.358Z,63.49
2023-01-13T07:10:13.001Z,63.37
2023-01-13T07:12:15.557Z,63.73
2023-01-13T07:14:35.639Z,63.66
2023-01-13T07:16:38.249Z,63.10
2023-01-13T07:18:40.946Z,62.80
2023-01-13T07:20:43.493Z,62.98
2023-01-13T07:22:47.406Z,62.92
2023-01-13T07:24:50.290Z,63.23
2023-01-13T07:26:53.263Z,63.44
2023-01-13T07:28:55.792Z,63.03
2023-01-13T07:30:59.196Z,63.00
2023-01-13T07:33:01.787Z,63.77
2023-01-13T07:35:05.908Z,63.20
2023-01-13T07:37:08.481Z,63.28
2023-01-13T07:39:12.388Z,63.33
2023-01-13T07:41:33.561Z,62.73
2023-01-13T07:43:36.112Z,63.63
2023-01-13T07:45:39.579Z,63.11
2023-01-13T07:47:42.296Z,63.29
2023-01-13T07:49:44.831Z,63.93
2023-01-13T07:51:47.377Z,63.66
2023-01-13T07:53:50.002Z,63.25
2023-01-13T07:55:56.866Z,63.24
2023-01-13T07:57:59.435Z,63.84
2023-01-13T08:00:02.023Z,63.41
2023-01-13T08:02:04.962Z,63.77
2023-01-13T08:04:07.708Z,63.53
2023-01-13T08:06:11.188Z,63.20
2023-01-13T08:08:14.044Z,62.93
2023-01-13T08:10:17.230Z,63.21
2023-01-13T08:12:38.894Z,64.03
2023-01-13T08:14:41.487Z,64.42
2023-01-13T08:16:44.126Z,63.17
2023-01-13T08:18:46.732Z,63.81
2023-01-13T08:20:49.778Z,63.79
2023-01-13T08:22:56.676Z,63.56
2023-01-13T08:24:59.369Z,63.87
2023-01-13T08:27:01.978Z,63.77
2023-01-13T08:29:05.856Z,64.13
2023-01-13T08:31:11.367Z,64.21
2023-01-13T08:33:14.203Z,64.56
2023-01-13T08:35:18.133Z,65.15
2023-01-13T08:37:20.698Z,66.34
2023-01-13T08:39:24.925Z,67.56
2023-01-13T08:41:41.463Z,67.57
2023-01-13T08:43:44.083Z,68.27
2023-01-13T08:45:57.047Z,67.86
2023-01-13T08:48:00.186Z,68.67
2023-01-13T08:50:02.775Z,68.51
2023-01-13T08:52:05.649Z,67.55
2023-01-13T08:54:08.280Z,67.12
2023-01-13T08:56:11.718Z,67.43
2023-01-13T08:58:16.305Z,69.24
2023-01-13T09:00:19.705Z,68.90
2023-01-13T09:02:24.976Z,69.49
2023-01-13T09:04:29.212Z,70.13
2023-01-13T09:06:31.916Z,69.88
2023-01-13T09:08:34.637Z,69.36
2023-01-13T09:10:37.293Z,69.36
2023-01-13T09:12:57.606Z,70.07
2023-01-13T09:15:01.495Z,68.87
2023-01-13T09:17:04.476Z,69.03
2023-01-13T09:19:08.390Z,68.96
2023-01-13T09:21:12.082Z,68.73
2023-01-13T09:23:14.664Z,68.69
2023-01-13T09:25:17.298Z,68.46
2023-01-13T09:27:19.921Z,68.48
2023-01-13T09:29:22.587Z,68.99
2023-01-13T09:31:25.250Z,68.32
2023-01-13T09:33:53.780Z,68.71
2023-01-13T09:36:01.053Z,68.67
2023-01-13T09:38:03.640Z,69.04
2023-01-13T09:40:09.088Z,68.97
2023-01-13T09:42:44.574Z,69.82
2023-01-13T09:44:53.120Z,69.31
2023-01-13T09:47:01.625Z,69.85
2023-01-13T09:49:05.340Z,69.67
2023-01-13T09:51:16.731Z,69.65
2023-01-13T09:53:26.518Z,69.87
2023-01-13T09:55:36.648Z,70.24
2023-01-13T09:57:39.975Z,70.04
2023-01-13T09:59:43.772Z,70.06
2023-01-13T10:01:57.345Z,69.51
2023-01-13T10:04:04.625Z,69.35
2023-01-13T10:06:14.654Z,69.87
2023-01-13T10:08:22.969Z,70.23
2023-01-13T10:10:34.688Z,70.81
2023-01-13T10:12:54.954Z,72.00
2023-01-13T10:14:57.551Z,73.02
2023-01-13T10:17:07.409Z,73.63
2023-01-13T10:19:18.536Z,74.34
2023-01-13T10:21:43.525Z,74.56
2023-01-13T10:23:58.167Z,75.06
2023-01-13T10:26:08.893Z,75.04
2023-01-13T10:28:13.637Z,75.29
2023-01-13T10:30:22.448Z,74.11
2023-01-13T10:32:25.138Z,74.08
2023-01-13T10:34:29.281Z,74.07
2023-01-13T10:36:33.194Z,72.96
2023-01-13T10:38:39.311Z,73.09
2023-01-13T10:40:49.635Z,73.52
2023-01-13T10:43:06.419Z,74.06
2023-01-13T10:45:24.759Z,74.25
2023-01-13T10:47:30.196Z,74.21
2023-01-13T10:49:36.288Z,75.01
2023-01-13T10:51:45.920Z,75.61
2023-01-13T10:53:53.631Z,75.68
2023-01-13T10:56:01.966Z,75.79
2023-01-13T10:58:15.135Z,75.45
2023-01-13T11:00:27.717Z,75.61
2023-01-13T11:02:32.416Z,75.81
2023-01-13T11:04:37.507Z,75.67
2023-01-13T11:06:47.840Z,75.95
2023-01-13T11:08:52.026Z,75.67
2023-01-13T11:10:56.257Z,75.93
2023-01-13T11:13:05.318Z,76.33
2023-01-13T11:15:14.671Z,76.38
2023-01-13T11:17:29.454Z,75.41
2023-01-13T11:19:37.147Z,71.96
2023-01-13T11:21:47.177Z,68.51
2023-01-13T11:24:07.355Z,70.24
2023-01-13T11:26:15.292Z,68.32
2023-01-13T11:28:29.596Z,69.69
2023-01-13T11:30:36.621Z,70.01
2023-01-13T11:32:48.371Z,70.65
2023-01-13T11:34:55.738Z,70.55
2023-01-13T11:37:01.351Z,71.06
2023-01-13T11:39:19.042Z,72.04
2023-01-13T11:41:32.328Z,70.59
2023-01-13T11:43:40.751Z,70.43
2023-01-13T11:45:48.713Z,71.37
2023-01-13T11:47:57.225Z,71.22
2023-01-13T11:50:02.623Z,70.92
2023-01-13T11:52:14.577Z,71.03
2023-01-13T11:54:36.935Z,73.24
2023-01-13T11:57:03.096Z,72.85
2023-01-13T11:59:46.348Z,72.06
2023-01-13T12:02:10.831Z,71.37
2023-01-13T12:04:24.776Z,70.29
2023-01-13T12:06:35.642Z,68.34
2023-01-13T12:09:03.055Z,68.60
2023-01-13T12:11:17.259Z,69.59
2023-01-13T12:13:28.972Z,69.54
2023-01-13T12:15:59.008Z,70.64
2023-01-13T12:18:16.599Z,71.16
2023-01-13T12:20:30.935Z,70.38
2023-01-13T12:22:36.829Z,70.50
2023-01-13T12:24:46.601Z,71.55
2023-01-13T12:26:56.178Z,71.37
2023-01-13T12:29:03.967Z,70.87
2023-01-13T12:31:07.383Z,70.98
2023-01-13T12:33:20.286Z,69.91
2023-01-13T12:35:35.986Z,69.49
2023-01-13T12:37:47.974Z,70.17
2023-01-13T12:40:04.947Z,70.76
2023-01-13T12:42:33.639Z,70.01
2023-01-13T12:44:36.301Z,69.47
2023-01-13T12:46:56.901Z,69.67
2023-01-13T12:49:19.690Z,68.79
2023-01-13T12:51:24.931Z,69.72
2023-01-13T12:53:45.127Z,68.79
2023-01-13T12:55:51.993Z,69.20
2023-01-13T12:58:15.546Z,69.02
2023-01-13T13:00:18.805Z,68.94
2023-01-13T13:02:33.157Z,67.81
2023-01-13T13:04:44.236Z,68.08
2023-01-13T13:06:54.063Z,68.21
2023-01-13T13:09:04.360Z,67.73
2023-01-13T13:11:40.531Z,68.07
2023-01-13T13:13:48.326Z,68.41
2023-01-13T13:15:52.242Z,68.77
2023-01-13T13:18:21.540Z,67.89
2023-01-13T13:21:01.665Z,68.60
2023-01-13T13:23:28.927Z,68.79
2023-01-13T13:25:31.519Z,68.03
2023-01-13T13:27:41.372Z,67.12
2023-01-13T13:29:52.917Z,66.86
2023-01-13T13:32:28.315Z,66.64
2023-01-13T13:34:38.281Z,66.70
2023-01-13T13:37:05.719Z,65.31
2023-01-13T13:39:39.672Z,65.43
2023-01-13T13:42:03.805Z,65.66
2023-01-13T13:44:34.855Z,65.60
2023-01-13T13:46:48.365Z,64.94
2023-01-13T13:48:53.033Z,64.70
2023-01-13T13:51:01.339Z,64.44
2023-01-13T13:53:08.381Z,64.87
2023-01-13T13:55:19.569Z,65.45
2023-01-13T13:57:26.108Z,65.40
2023-01-13T13:59:31.070Z,64.80
2023-01-13T14:01:37.684Z,64.65
2023-01-13T14:03:41.696Z,64.40
2023-01-13T14:05:55.162Z,64.21
2023-01-13T14:08:02.316Z,65.18
2023-01-13T14:10:08.671Z,64.38
2023-01-13T14:12:19.015Z,64.95
2023-01-13T14:14:21.591Z,65.07
2023-01-13T14:16:24.142Z,64.42
2023-01-13T14:18:28.353Z,64.65
2023-01-13T14:20:34.453Z,63.53
2023-01-13T14:22:37.328Z,64.51
2023-01-13T14:24:47.642Z,64.90
2023-01-13T14:26:52.010Z,65.40
2023-01-13T14:28:56.181Z,66.04
2023-01-13T14:30:59.538Z,66.52
2023-01-13T14:33:02.199Z,66.39
2023-01-13T14:35:07.192Z,66.46
2023-01-13T14:37:25.856Z,66.19
2023-01-13T14:39:38.788Z,64.54
2023-01-13T14:41:50.629Z,64.79
2023-01-13T14:43:56.669Z,63.77
2023-01-13T14:46:01.389Z,62.63
2023-01-13T14:48:09.844Z,63.86
2023-01-13T14:50:20.591Z,63.53
2023-01-13T14:52:27.791Z,63.87
2023-01-13T14:54:50.914Z,64.35
2023-01-13T14:56:55.106Z,63.89
2023-01-13T14:58:57.727Z,64.13
2023-01-13T15:01:30.024Z,63.86
2023-01-13T15:03:42.404Z,63.86
2023-01-13T15:05:50.554Z,64.34
2023-01-13T15:07:55.764Z,64.47
2023-01-13T15:10:00.945Z,64.64
2023-01-13T15:12:22.966Z,64.12
2023-01-13T15:14:33.674Z,63.56
2023-01-13T15:16:36.834Z,63.78
2023-01-13T15:18:41.111Z,63.71
2023-01-13T15:20:44.185Z,62.41
2023-01-13T15:22:46.991Z,62.01
2023-01-13T15:24:51.091Z,62.52
2023-01-13T15:26:53.719Z,62.32
2023-01-13T15:28:59.006Z,61.82
2023-01-13T15:31:03.696Z,62.14
2023-01-13T15:33:06.855Z,61.11
2023-01-13T15:35:14.225Z,61.41
2023-01-13T15:37:17.792Z,60.51
2023-01-13T15:39:20.446Z,61.10
2023-01-13T15:41:38.697Z,61.16
2023-01-13T15:43:59.028Z,61.71
2023-01-13T15:46:20.107Z,61.08
2023-01-13T15:48:24.731Z,61.10
2023-01-13T15:50:27.323Z,61.44
2023-01-13T15:52:30.334Z,62.31
2023-01-13T15:54:32.883Z,62.37
2023-01-13T15:56:37.954Z,62.78
2023-01-13T15:58:42.655Z,63.05
2023-01-13T16:00:45.300Z,63.77
2023-01-13T16:02:48.190Z,64.20
2023-01-13T16:04:53.776Z,64.29
2023-01-13T16:06:56.691Z,62.12
2023-01-13T16:08:59.430Z,61.76
2023-01-13T16:11:02.096Z,62.24
2023-01-13T16:13:06.325Z,62.63
2023-01-13T16:15:10.712Z,62.74
2023-01-13T16:17:17.368Z,62.85
2023-01-13T16:19:20.062Z,62.26
2023-01-13T16:21:25.496Z,62.62
2023-01-13T16:23:28.072Z,62.68
2023-01-13T16:25:30.722Z,62.66
2023-01-13T16:27:33.282Z,63.04
2023-01-13T16:29:37.176Z,62.69
2023-01-13T16:31:40.360Z,61.78
2023-01-13T16:33:42.978Z,61.55
2023-01-13T16:36:09.671Z,62.63
2023-01-13T16:38:08.215Z,61.42
2023-01-13T16:40:22.503Z,61.74
2023-01-13T16:42:25.140Z,62.36
2023-01-13T16:44:27.719Z,62.25
2023-01-13T16:46:33.543Z,62.66
2023-01-13T16:48:36.096Z,62.91
2023-01-13T16:50:40.964Z,63.09
2023-01-13T16:52:43.544Z,63.24
2023-01-13T16:54:46.129Z,63.16
2023-01-13T16:56:48.701Z,61.99
2023-01-13T16:58:52.372Z,61.54
2023-01-13T17:00:55.009Z,62.00
2023-01-13T17:03:01.859Z,61.55
2023-01-13T17:05:04.727Z,62.23
2023-01-13T17:07:10.369Z,62.27
2023-01-13T17:09:17.339Z,62.83
2023-01-13T17:11:20.487Z,62.91
2023-01-13T17:13:23.379Z,63.34
2023-01-13T17:15:25.936Z,63.23
2023-01-13T17:17:29.284Z,62.45
2023-01-13T17:19:33.177Z,63.03
2023-01-13T17:21:36.226Z,63.08
2023-01-13T17:23:38.802Z,63.70
2023-01-13T17:25:41.491Z,63.50
2023-01-13T17:27:44.072Z,63.87
2023-01-13T17:29:46.892Z,64.09
2023-01-13T17:31:49.850Z,64.99
2023-01-13T17:33:52.475Z,66.38
2023-01-13T17:35:56.387Z,69.43
2023-01-13T17:37:58.918Z,68.12
2023-01-13T17:40:02.386Z,68.29
2023-01-13T17:42:05.578Z,68.29
2023-01-13T17:44:08.123Z,68.74
2023-01-13T17:46:11.570Z,69.32
2023-01-13T17:48:14.219Z,70.30
2023-01-13T17:50:18.332Z,71.03
2023-01-13T17:52:22.232Z,71.80
2023-01-13T17:54:24.967Z,70.60
2023-01-13T17:56:27.527Z,68.53
2023-01-13T17:58:30.063Z,68.73
2023-01-13T18:00:33.732Z,69.34
2023-01-13T18:02:36.380Z,69.95
2023-01-13T18:04:39.041Z,69.49
2023-01-13T18:06:41.573Z,69.62
2023-01-13T18:08:45.946Z,67.54
2023-01-13T18:10:52.540Z,67.62
2023-01-13T18:12:55.075Z,66.77
2023-01-13T18:14:57.661Z,67.73
2023-01-13T18:17:00.223Z,67.53
2023-01-13T18:19:20.853Z,67.38
2023-01-13T18:21:45.357Z,68.09
2023-01-13T18:24:06.644Z,67.91
2023-01-13T18:26:31.280Z,68.31
2023-01-13T18:28:33.873Z,68.58
2023-01-13T18:30:36.704Z,69.33
2023-01-13T18:32:39.386Z,69.69
2023-01-13T18:34:42.763Z,69.13
2023-01-13T18:36:45.765Z,69.09
2023-01-13T18:38:51.524Z,68.11
2023-01-13T18:40:54.067Z,68.11
2023-01-13T18:42:55.759Z,67.70
2023-01-13T18:44:58.395Z,68.48
2023-01-13T18:47:00.968Z,69.04
2023-01-13T18:49:03.548Z,67.91
2023-01-13T18:51:06.497Z,68.59
2023-01-13T18:53:09.048Z,68.64
2023-01-13T18:55:13.019Z,68.99
2023-01-13T18:57:15.921Z,69.14
2023-01-13T18:59:18.896Z,68.21
2023-01-13T19:01:25.684Z,68.83
2023-01-13T19:03:30.244Z,68.82
2023-01-13T19:05:34.190Z,67.76
2023-01-13T19:07:36.996Z,68.43
2023-01-13T19:09:42.116Z,68.74
2023-01-13T19:11:47.353Z,68.16
2023-01-13T19:13:50.384Z,68.29
2023-01-13T19:15:52.987Z,68.69
2023-01-13T19:17:55.762Z,68.71
2023-01-13T19:19:58.983Z,69.05
2023-01-13T19:22:01.738Z,68.92
2023-01-13T19:24:04.428Z,68.66
2023-01-13T19:26:10.132Z,69.23
2023-01-13T19:28:14.784Z,68.18
2023-01-13T19:30:17.702Z,68.62
2023-01-13T19:32:21.943Z,68.33
2023-01-13T19:34:25.362Z,68.20
2023-01-13T19:36:27.935Z,68.05
2023-01-13T19:38:30.524Z,67.65
2023-01-13T19:40:33.074Z,67.70
2023-01-13T19:42:53.131Z,68.19
2023-01-13T19:45:14.422Z,68.05
2023-01-13T19:47:17.097Z,68.53
2023-01-13T19:49:19.675Z,68.53
2023-01-13T19:51:22.199Z,68.69
2023-01-13T19:53:24.753Z,69.10
2023-01-13T19:55:28.017Z,68.88
2023-01-13T19:57:30.899Z,68.98
2023-01-13T19:59:33.715Z,68.89
2023-01-13T20:01:41.340Z,69.38
2023-01-13T20:03:46.110Z,69.15
2023-01-13T20:05:48.740Z,69.14
2023-01-13T20:07:52.204Z,69.47
2023-01-13T20:09:56.274Z,69.50
2023-01-13T20:11:58.935Z,69.39
2023-01-13T20:14:02.679Z,69.06
2023-01-13T20:16:06.672Z,69.46
2023-01-13T20:18:13.809Z,70.08
2023-01-13T20:20:16.753Z,69.26
2023-01-13T20:22:19.490Z,69.42
2023-01-13T20:24:23.204Z,69.11
2023-01-13T20:26:25.742Z,69.75
2023-01-13T20:28:28.561Z,70.07
2023-01-13T20:30:31.146Z,69.98
2023-01-13T20:32:33.765Z,70.13
2023-01-13T20:34:37.724Z,68.86
2023-01-13T20:36:43.299Z,70.33
2023-01-13T20:38:45.876Z,69.70
2023-01-13T20:40:48.513Z,70.26
2023-01-13T20:42:51.727Z,69.93
2023-01-13T20:44:54.359Z,69.70
2023-01-13T20:46:57.867Z,70.54
2023-01-13T20:49:00.455Z,70.13
2023-01-13T20:51:04.699Z,70.47
2023-01-13T20:53:07.341Z,70.39
2023-01-13T20:55:10.654Z,70.54
2023-01-13T20:57:13.339Z,70.63
2023-01-13T20:59:15.967Z,70.78
2023-01-13T21:01:18.610Z,70.96
2023-01-13T21:03:21.254Z,71.31
2023-01-13T21:05:23.933Z,70.67
2023-01-13T21:07:28.309Z,69.98
2023-01-13T21:09:31.204Z,70.22
2023-01-13T21:11:51.552Z,70.53
2023-01-13T21:14:11.722Z,70.58
2023-01-13T21:16:14.361Z,70.71
2023-01-13T21:18:34.451Z,70.77
2023-01-13T21:20:38.659Z,70.79
2023-01-13T21:22:45.626Z,71.13
2023-01-13T21:24:49.213Z,71.06
2023-01-13T21:26:54.649Z,69.93
2023-01-13T21:28:58.516Z,70.28
2023-01-13T21:31:03.327Z,69.81
2023-01-13T21:33:06.290Z,69.76
2023-01-13T21:35:10.231Z,70.23
2023-01-13T21:37:12.810Z,69.18
2023-01-13T21:39:16.719Z,69.62
2023-01-13T21:41:40.029Z,69.30
2023-01-13T21:44:00.061Z,68.65
2023-01-13T21:46:31.860Z,68.98
2023-01-13T21:48:34.582Z,68.24
2023-01-13T21:50:38.296Z,68.20
2023-01-13T21:52:42.580Z,67.71
2023-01-13T21:55:12.629Z,67.76
2023-01-13T21:57:15.419Z,68.03
2023-01-13T21:59:18.249Z,67.89
2023-01-13T22:01:21.150Z,68.43
2023-01-13T22:03:23.958Z,68.64
2023-01-13T22:05:27.434Z,68.80
2023-01-13T22:07:32.277Z,68.94
2023-01-13T22:09:34.875Z,67.90
2023-01-13T22:11:38.956Z,68.69
2023-01-13T22:14:14.129Z,68.10
2023-01-13T22:16:17.179Z,67.83
2023-01-13T22:18:19.847Z,67.83
2023-01-13T22:20:23.359Z,68.23
2023-01-13T22:22:27.207Z,67.94
2023-01-13T22:24:30.327Z,68.36
2023-01-13T22:26:32.974Z,68.86
2023-01-13T22:28:42.809Z,68.34
2023-01-13T22:30:46.156Z,68.93
2023-01-13T22:32:48.814Z,69.05
2023-01-13T22:34:51.403Z,69.09
2023-01-13T22:36:53.990Z,68.38
2023-01-13T22:38:57.239Z,68.70
2023-01-13T22:41:00.694Z,68.70
2023-01-13T22:43:03.317Z,68.61
2023-01-13T22:45:11.569Z,66.87
2023-01-13T22:47:14.126Z,66.95
2023-01-13T22:49:19.953Z,66.85
2023-01-13T22:51:23.687Z,67.03
2023-01-13T22:53:26.221Z,66.26
2023-01-13T22:55:28.773Z,66.40
2023-01-13T22:57:36.012Z,67.04
2023-01-13T22:59:41.323Z,66.64
2023-01-13T23:01:45.340Z,66.91
2023-01-13T23:03:48.791Z,66.50
2023-01-13T23:05:57.975Z,66.87
2023-01-13T23:08:00.657Z,66.89
2023-01-13T23:10:03.258Z,67.08
2023-01-13T23:12:06.725Z,66.84
2023-01-13T23:14:11.659Z,67.22
2023-01-13T23:16:16.546Z,67.66
2023-01-13T23:18:20.437Z,67.23
2023-01-13T23:20:22.983Z,67.52
2023-01-13T23:22:25.595Z,67.73
2023-01-13T23:24:29.279Z,68.02
2023-01-13T23:26:32.685Z,67.98
2023-01-13T23:28:36.807Z,68.28
2023-01-13T23:30:40.658Z,68.15
2023-01-13T23:32:43.250Z,68.23
2023-01-13T23:34:47.128Z,68.08
2023-01-13T23:36:49.670Z,67.90
2023-01-13T23:38:53.450Z,67.79
2023-01-13T23:40:56.521Z,67.77
2023-01-13T23:42:59.097Z,66.99
2023-01-13T23:45:01.699Z,66.21
2023-01-13T23:47:04.313Z,66.76
2023-01-13T23:49:06.902Z,67.04
2023-01-13T23:51:13.427Z,67.15
2023-01-13T23:53:16.032Z,67.59
2023-01-13T23:55:18.640Z,67.26
2023-01-13T23:57:21.184Z,66.92
2023-01-13T23:59:23.859Z,66.76
